createdAt,value
2018-11-28T00:00:09.983Z,-2.32
2018-11-28T00:01:09.973Z,-2.28
2018-11-28T00:02:09.990Z,-2.33
2018-11-28T00:03:09.952Z,-2.29
2018-11-28T00:04:09.982Z,-2.32
2018-11-28T00:05:09.927Z,-2.26
2018-11-28T00:06:09.920Z,-2.25
2018-11-28T00:07:09.903Z,-2.19
2018-11-28T00:08:09.918Z,-2.21
2018-11-28T00:09:09.885Z,-2.32
2018-11-28T00:10:09.912Z,-2.38
2018-11-28T00:11:09.865Z,-2.35
2018-11-28T00:12:09.856Z,-2.33
2018-11-28T00:13:09.854Z,-2.25
2018-11-28T00:14:09.861Z,-2.32
2018-11-28T00:15:09.830Z,-2.28
2018-11-28T00:16:09.829Z,-2.38
2018-11-28T00:17:09.833Z,-2.32
2018-11-28T00:18:09.839Z,-2.38
2018-11-28T00:19:09.785Z,-2.35
2018-11-28T00:20:09.860Z,-2.29
2018-11-28T00:21:09.761Z,-2.40
2018-11-28T00:22:09.759Z,-2.40
2018-11-28T00:23:09.737Z,-2.51
2018-11-28T00:24:09.741Z,-2.50
2018-11-28T00:25:09.715Z,-2.51
2018-11-28T00:26:09.716Z,-2.58
2018-11-28T00:27:09.696Z,-2.53
2018-11-28T00:28:09.693Z,-2.58
2018-11-28T00:29:09.688Z,-2.50
2018-11-28T00:30:09.658Z,-2.50
2018-11-28T00:31:09.649Z,-2.43
2018-11-28T00:32:09.654Z,-2.44
2018-11-28T00:33:09.634Z,-2.47
2018-11-28T00:34:09.640Z,-2.50
2018-11-28T00:35:09.604Z,-2.47
2018-11-28T00:36:09.595Z,-2.47
2018-11-28T00:37:09.587Z,-2.53
2018-11-28T00:38:09.586Z,-2.50
2018-11-28T00:39:09.589Z,-2.50
2018-11-28T00:40:09.558Z,-2.44
2018-11-28T00:41:09.540Z,-2.55
2018-11-28T00:42:09.536Z,-2.55
2018-11-28T00:43:09.518Z,-2.61
2018-11-28T00:44:09.528Z,-2.51
2018-11-28T00:45:09.541Z,-2.61
2018-11-28T00:46:09.489Z,-2.62
2018-11-28T00:47:09.483Z,-2.56
2018-11-28T00:48:09.473Z,-2.56
2018-11-28T00:49:09.459Z,-2.66
2018-11-28T00:50:09.475Z,-2.56
2018-11-28T00:51:09.459Z,-2.62
2018-11-28T00:52:09.420Z,-2.58
2018-11-28T00:53:09.414Z,-2.64
2018-11-28T00:54:09.405Z,-2.66
2018-11-28T00:55:09.394Z,-2.71
2018-11-28T00:56:09.399Z,-2.80
2018-11-28T00:57:09.391Z,-2.76
2018-11-28T00:58:09.361Z,-2.66
2018-11-28T00:59:09.348Z,-2.79
2018-11-28T01:00:09.343Z,-2.74
2018-11-28T01:01:09.326Z,-2.69
2018-11-28T01:02:09.344Z,-2.66
2018-11-28T01:03:09.306Z,-2.71
2018-11-28T01:04:09.297Z,-2.65
2018-11-28T01:05:09.287Z,-2.69
2018-11-28T01:06:09.284Z,-2.64
2018-11-28T01:07:09.281Z,-2.71
2018-11-28T01:08:09.292Z,-2.62
2018-11-28T01:09:09.242Z,-2.59
2018-11-28T01:10:09.236Z,-2.58
2018-11-28T01:11:09.221Z,-2.61
2018-11-28T01:12:09.233Z,-2.64
2018-11-28T01:13:09.217Z,-2.64
2018-11-28T01:14:09.219Z,-2.59
2018-11-28T01:15:09.176Z,-2.56
2018-11-28T01:16:09.166Z,-2.58
2018-11-28T01:17:09.215Z,-2.50
2018-11-28T01:18:09.156Z,-2.59
2018-11-28T01:19:09.146Z,-2.64
2018-11-28T01:20:09.125Z,-2.59
2018-11-28T01:21:09.125Z,-2.56
2018-11-28T01:22:09.105Z,-2.59
2018-11-28T01:23:09.096Z,-2.62
2018-11-28T01:24:09.094Z,-2.62
2018-11-28T01:25:09.083Z,-2.59
2018-11-28T01:26:09.059Z,-2.53
2018-11-28T01:27:09.063Z,-2.53
2018-11-28T01:28:09.042Z,-2.48
2018-11-28T01:29:09.050Z,-2.50
2018-11-28T01:30:09.030Z,-2.44
2018-11-28T01:31:09.007Z,-2.46
2018-11-28T01:32:08.994Z,-2.55
2018-11-28T01:33:09.001Z,-2.46
2018-11-28T01:34:09.015Z,-2.51
2018-11-28T01:35:08.967Z,-2.50
2018-11-28T01:36:08.953Z,-2.50
2018-11-28T01:37:08.942Z,-2.50
2018-11-28T01:38:08.934Z,-2.58
2018-11-28T01:39:08.954Z,-2.50
2018-11-28T01:40:08.930Z,-2.51
2018-11-28T01:41:08.897Z,-2.53
2018-11-28T01:42:08.890Z,-2.56
2018-11-28T01:43:08.879Z,-2.50
2018-11-28T01:44:08.869Z,-2.55
2018-11-28T01:45:08.870Z,-2.48
2018-11-28T01:46:08.863Z,-2.61
2018-11-28T01:47:08.835Z,-2.56
2018-11-28T01:48:08.829Z,-2.65
2018-11-28T01:49:08.851Z,-2.59
2018-11-28T01:50:08.803Z,-2.48
2018-11-28T01:51:08.811Z,-2.53
2018-11-28T01:52:08.783Z,-2.50
2018-11-28T01:53:08.785Z,-2.55
2018-11-28T01:54:08.768Z,-2.56
2018-11-28T01:55:08.794Z,-2.61
2018-11-28T01:56:08.740Z,-2.50
2018-11-28T01:57:08.743Z,-2.51
2018-11-28T01:58:08.717Z,-2.51
2018-11-28T01:59:08.710Z,-2.50
2018-11-28T02:00:08.702Z,-2.55
2018-11-28T02:01:08.722Z,-2.53
2018-11-28T02:02:08.675Z,-2.53
2018-11-28T02:03:08.680Z,-2.50
2018-11-28T02:04:08.674Z,-2.51
2018-11-28T02:05:08.654Z,-2.50
2018-11-28T02:06:08.640Z,-2.48
2018-11-28T02:07:08.678Z,-2.55
2018-11-28T02:08:08.625Z,-2.61
2018-11-28T02:09:08.648Z,-2.64
2018-11-28T02:10:08.621Z,-2.66
2018-11-28T02:11:08.586Z,-2.66
2018-11-28T02:12:08.603Z,-2.69
2018-11-28T02:13:08.559Z,-2.61
2018-11-28T02:14:08.545Z,-2.53
2018-11-28T02:15:08.561Z,-2.56
2018-11-28T02:16:08.528Z,-2.50
2018-11-28T02:17:08.515Z,-2.53
2018-11-28T02:18:08.543Z,-2.58
2018-11-28T02:19:08.489Z,-2.56
2018-11-28T02:20:08.479Z,-2.56
2018-11-28T02:21:08.487Z,-2.56
2018-11-28T02:22:08.461Z,-2.48
2018-11-28T02:23:09.140Z,-2.48
2018-11-28T02:24:08.486Z,-2.47
2018-11-28T02:25:08.426Z,-2.44
2018-11-28T02:26:08.419Z,-2.50
2018-11-28T02:27:08.441Z,-2.53
2018-11-28T02:28:08.402Z,-2.51
2018-11-28T02:29:08.382Z,-2.47
2018-11-28T02:30:08.393Z,-2.51
2018-11-28T02:31:08.368Z,-2.50
2018-11-28T02:32:08.349Z,-2.47
2018-11-28T02:33:08.367Z,-2.58
2018-11-28T02:34:08.348Z,-2.53
2018-11-28T02:35:08.321Z,-2.56
2018-11-28T02:36:08.311Z,-2.51
2018-11-28T02:37:08.298Z,-2.51
2018-11-28T02:38:08.292Z,-2.48
2018-11-28T02:39:08.331Z,-2.56
2018-11-28T02:40:08.271Z,-2.53
2018-11-28T02:41:08.252Z,-2.51
2018-11-28T02:42:08.243Z,-2.48
2018-11-28T02:43:08.231Z,-2.53
2018-11-28T02:44:08.224Z,-2.61
2018-11-28T02:45:08.246Z,-2.58
2018-11-28T02:46:08.205Z,-2.56
2018-11-28T02:47:08.191Z,-2.58
2018-11-28T02:48:08.180Z,-2.61
2018-11-28T02:49:08.171Z,-2.58
2018-11-28T02:50:08.163Z,-2.58
2018-11-28T02:51:08.183Z,-2.62
2018-11-28T02:52:08.153Z,-2.51
2018-11-28T02:53:08.170Z,-2.66
2018-11-28T02:54:08.123Z,-2.58
2018-11-28T02:55:08.103Z,-2.58
2018-11-28T02:56:08.096Z,-2.51
2018-11-28T02:57:08.105Z,-2.59
2018-11-28T02:58:08.074Z,-2.56
2018-11-28T02:59:08.083Z,-2.55
2018-11-28T03:00:08.049Z,-2.50
2018-11-28T03:01:08.049Z,-2.59
2018-11-28T03:02:08.043Z,-2.47
2018-11-28T03:03:08.045Z,-2.58
2018-11-28T03:04:08.011Z,-2.53
2018-11-28T03:05:07.998Z,-2.55
2018-11-28T03:06:07.984Z,-2.55
2018-11-28T03:07:08.018Z,-2.56
2018-11-28T03:08:07.971Z,-2.51
2018-11-28T03:09:07.987Z,-2.58
2018-11-28T03:10:07.947Z,-2.53
2018-11-28T03:11:07.937Z,-2.61
2018-11-28T03:12:07.932Z,-2.64
2018-11-28T03:13:07.929Z,-2.64
2018-11-28T03:14:07.909Z,-2.53
2018-11-28T03:15:07.903Z,-2.53
2018-11-28T03:16:07.881Z,-2.56
2018-11-28T03:17:07.871Z,-2.58
2018-11-28T03:18:07.879Z,-2.53
2018-11-28T03:19:07.849Z,-2.62
2018-11-28T03:20:07.845Z,-2.56
2018-11-28T03:21:07.846Z,-2.55
2018-11-28T03:22:07.816Z,-2.59
2018-11-28T03:23:07.822Z,-2.64
2018-11-28T03:24:07.809Z,-2.65
2018-11-28T03:25:07.791Z,-2.62
2018-11-28T03:26:07.776Z,-2.58
2018-11-28T03:27:07.784Z,-2.59
2018-11-28T03:28:07.770Z,-2.68
2018-11-28T03:29:07.789Z,-2.58
2018-11-28T03:30:07.740Z,-2.56
2018-11-28T03:31:07.725Z,-2.65
2018-11-28T03:32:07.714Z,-2.64
2018-11-28T03:33:07.723Z,-2.56
2018-11-28T03:34:07.694Z,-2.55
2018-11-28T03:35:07.716Z,-2.55
2018-11-28T03:36:07.697Z,-2.58
2018-11-28T03:37:07.667Z,-2.48
2018-11-28T03:38:07.643Z,-2.47
2018-11-28T03:39:07.649Z,-2.48
2018-11-28T03:40:07.629Z,-2.51
2018-11-28T03:41:07.632Z,-2.48
2018-11-28T03:42:07.604Z,-2.38
2018-11-28T03:43:07.602Z,-2.56
2018-11-28T03:44:07.582Z,-2.47
2018-11-28T03:45:07.623Z,-2.46
2018-11-28T03:46:07.559Z,-2.44
2018-11-28T03:47:07.549Z,-2.41
2018-11-28T03:48:07.546Z,-2.46
2018-11-28T03:49:07.539Z,-2.48
2018-11-28T03:50:07.544Z,-2.47
2018-11-28T03:51:07.532Z,-2.53
2018-11-28T03:52:07.498Z,-2.56
2018-11-28T03:53:07.488Z,-2.58
2018-11-28T03:54:07.479Z,-2.51
2018-11-28T03:55:07.483Z,-2.55
2018-11-28T03:56:07.454Z,-2.56
2018-11-28T03:57:07.463Z,-2.55
2018-11-28T03:58:07.432Z,-2.61
2018-11-28T03:59:07.423Z,-2.59
2018-11-28T04:00:07.435Z,-2.59
2018-11-28T04:01:07.402Z,-2.61
2018-11-28T04:02:07.390Z,-2.55
2018-11-28T04:03:07.399Z,-2.55
2018-11-28T04:04:07.368Z,-2.56
2018-11-28T04:05:07.369Z,-2.46
2018-11-28T04:06:07.347Z,-2.55
2018-11-28T04:07:07.339Z,-2.48
2018-11-28T04:08:07.326Z,-2.55
2018-11-28T04:09:07.326Z,-2.47
2018-11-28T04:10:07.324Z,-2.47
2018-11-28T04:11:07.297Z,-2.48
2018-11-28T04:12:07.280Z,-2.51
2018-11-28T04:13:07.291Z,-2.48
2018-11-28T04:14:07.265Z,-2.53
2018-11-28T04:15:07.290Z,-2.48
2018-11-28T04:16:07.241Z,-2.46
2018-11-28T04:17:07.237Z,-2.48
2018-11-28T04:18:07.231Z,-2.46
2018-11-28T04:19:07.210Z,-2.50
2018-11-28T04:20:07.243Z,-2.40
2018-11-28T04:21:07.206Z,-2.50
2018-11-28T04:22:07.181Z,-2.41
2018-11-28T04:23:07.178Z,-2.44
2018-11-28T04:24:07.158Z,-2.46
2018-11-28T04:25:07.148Z,-2.32
2018-11-28T04:26:07.156Z,-2.33
2018-11-28T04:27:07.137Z,-2.32
2018-11-28T04:28:07.118Z,-2.32
2018-11-28T04:29:07.108Z,-2.22
2018-11-28T04:30:07.101Z,-2.29
2018-11-28T04:31:07.104Z,-2.33
2018-11-28T04:32:07.076Z,-2.28
2018-11-28T04:33:07.093Z,-2.33
2018-11-28T04:34:07.055Z,-2.35
2018-11-28T04:35:07.044Z,-2.22
2018-11-28T04:36:07.048Z,-2.22
2018-11-28T04:37:07.031Z,-2.29
2018-11-28T04:38:07.018Z,-2.29
2018-11-28T04:39:07.007Z,-2.28
2018-11-28T04:40:07.002Z,-2.22
2018-11-28T04:41:06.985Z,-2.19
2018-11-28T04:42:07.014Z,-2.22
2018-11-28T04:43:06.962Z,-2.13
2018-11-28T04:44:06.950Z,-2.16
2018-11-28T04:45:06.939Z,-2.11
2018-11-28T04:46:06.957Z,-2.13
2018-11-28T04:47:06.923Z,-2.07
2018-11-28T04:48:06.929Z,-2.00
2018-11-28T04:49:06.896Z,-2.07
2018-11-28T04:50:06.890Z,-2.04
2018-11-28T04:51:06.956Z,-2.04
2018-11-28T04:52:06.884Z,-2.00
2018-11-28T04:53:06.862Z,-2.13
2018-11-28T04:54:06.848Z,-2.08
2018-11-28T04:55:06.853Z,-2.13
2018-11-28T04:56:06.819Z,-1.93
2018-11-28T04:57:06.813Z,-1.95
2018-11-28T04:58:06.821Z,-1.98
2018-11-28T04:59:06.800Z,-2.10
2018-11-28T05:00:06.779Z,-2.07
2018-11-28T05:01:06.782Z,-2.06
2018-11-28T05:02:06.759Z,-2.06
2018-11-28T05:03:06.749Z,-2.10
2018-11-28T05:04:06.791Z,-2.14
2018-11-28T05:05:06.732Z,-2.14
2018-11-28T05:06:06.717Z,-2.14
2018-11-28T05:07:06.714Z,-2.11
2018-11-28T05:08:06.702Z,-2.13
2018-11-28T05:09:06.690Z,-2.11
2018-11-28T05:10:06.713Z,-2.14
2018-11-28T05:11:06.662Z,-2.16
2018-11-28T05:12:06.653Z,-2.19
2018-11-28T05:13:06.671Z,-2.13
2018-11-28T05:14:06.651Z,-2.13
2018-11-28T05:15:06.628Z,-2.16
2018-11-28T05:16:06.634Z,-2.11
2018-11-28T05:17:06.605Z,-2.11
2018-11-28T05:18:06.592Z,-2.08
2018-11-28T05:19:06.616Z,-2.08
2018-11-28T05:20:06.577Z,-2.10
2018-11-28T05:21:06.570Z,-2.03
2018-11-28T05:22:06.622Z,-2.18
2018-11-28T05:23:06.693Z,-2.13
2018-11-28T05:24:06.528Z,-2.06
2018-11-28T05:25:06.529Z,-2.04
2018-11-28T05:26:06.508Z,-2.10
2018-11-28T05:27:06.495Z,-1.98
2018-11-28T05:28:06.483Z,-2.01
2018-11-28T05:29:06.479Z,-2.11
2018-11-28T05:30:06.608Z,-1.93
2018-11-28T05:31:06.465Z,-2.07
2018-11-28T05:32:06.441Z,-1.93
2018-11-28T05:33:06.468Z,-1.95
2018-11-28T05:34:06.439Z,-1.90
2018-11-28T05:35:06.412Z,-1.95
2018-11-28T05:36:06.430Z,-1.88
2018-11-28T05:37:06.392Z,-1.85
2018-11-28T05:38:06.380Z,-1.85
2018-11-28T05:39:06.371Z,-1.80
2018-11-28T05:40:06.382Z,-1.77
2018-11-28T05:41:06.373Z,-1.85
2018-11-28T05:42:06.338Z,-1.77
2018-11-28T05:43:06.333Z,-1.70
2018-11-28T05:44:06.359Z,-1.77
2018-11-28T05:45:06.308Z,-1.65
2018-11-28T05:46:06.298Z,-1.65
2018-11-28T05:47:06.303Z,-1.67
2018-11-28T05:48:06.282Z,-1.56
2018-11-28T05:49:06.264Z,-1.54
2018-11-28T05:50:06.265Z,-1.65
2018-11-28T05:51:06.282Z,-1.64
2018-11-28T05:52:06.287Z,-1.53
2018-11-28T05:53:06.222Z,-1.57
2018-11-28T05:54:06.224Z,-1.51
2018-11-28T05:55:06.197Z,-1.57
2018-11-28T05:56:06.184Z,-1.57
2018-11-28T05:57:06.233Z,-1.53
2018-11-28T05:58:06.167Z,-1.57
2018-11-28T05:59:06.156Z,-1.44
2018-11-28T06:00:06.143Z,-1.49
2018-11-28T06:01:06.256Z,-1.49
2018-11-28T06:02:06.147Z,-1.54
2018-11-28T06:03:06.123Z,-1.54
2018-11-28T06:04:06.163Z,-1.61
2018-11-28T06:05:06.088Z,-1.49
2018-11-28T06:06:06.081Z,-1.47
2018-11-28T06:07:06.067Z,-1.53
2018-11-28T06:08:06.086Z,-1.53
2018-11-28T06:09:06.118Z,-1.49
2018-11-28T06:10:06.160Z,-1.47
2018-11-28T06:11:06.043Z,-1.49
2018-11-28T06:12:06.022Z,-1.41
2018-11-28T06:13:06.033Z,-1.47
2018-11-28T06:14:06.005Z,-1.50
2018-11-28T06:15:05.989Z,-1.56
2018-11-28T06:16:06.007Z,-1.53
2018-11-28T06:17:05.967Z,-1.53
2018-11-28T06:18:05.952Z,-1.49
2018-11-28T06:19:06.056Z,-1.51
2018-11-28T06:20:05.928Z,-1.50
2018-11-28T06:21:05.914Z,-1.47
2018-11-28T06:22:05.922Z,-1.51
2018-11-28T06:23:05.905Z,-1.43
2018-11-28T06:24:05.911Z,-1.38
2018-11-28T06:25:05.877Z,-1.44
2018-11-28T06:26:05.880Z,-1.38
2018-11-28T06:27:05.848Z,-1.41
2018-11-28T06:28:05.840Z,-1.26
2018-11-28T06:29:05.833Z,-1.23
2018-11-28T06:30:05.834Z,-1.29
2018-11-28T06:31:05.817Z,-1.23
2018-11-28T06:32:05.794Z,-1.26
2018-11-28T06:33:05.784Z,-1.25
2018-11-28T06:34:05.803Z,-1.23
2018-11-28T06:35:05.769Z,-1.23
2018-11-28T06:36:05.783Z,-1.15
2018-11-28T06:37:05.752Z,-1.28
2018-11-28T06:38:05.748Z,-1.18
2018-11-28T06:39:05.848Z,-1.18
2018-11-28T06:40:05.750Z,-1.17
2018-11-28T06:41:05.736Z,-1.15
2018-11-28T06:42:05.744Z,-1.11
2018-11-28T06:43:05.739Z,-1.25
2018-11-28T06:44:05.674Z,-1.17
2018-11-28T06:45:05.673Z,-1.11
2018-11-28T06:46:05.656Z,-1.18
2018-11-28T06:47:05.642Z,-1.05
2018-11-28T06:48:05.624Z,-1.08
2018-11-28T06:49:05.665Z,-1.08
2018-11-28T06:50:05.617Z,-1.02
2018-11-28T06:51:06.075Z,-1.03
2018-11-28T06:52:05.582Z,-1.05
2018-11-28T06:53:05.586Z,-1.08
2018-11-28T06:54:05.560Z,-0.96
2018-11-28T06:55:05.558Z,-1.02
2018-11-28T06:56:05.568Z,-0.92
2018-11-28T06:57:05.524Z,-0.95
2018-11-28T06:58:05.521Z,-0.85
2018-11-28T06:59:05.507Z,-0.86
2018-11-28T07:00:05.492Z,-0.81
2018-11-28T07:01:05.490Z,-0.80
2018-11-28T07:02:05.483Z,-0.78
2018-11-28T07:03:05.463Z,-0.85
2018-11-28T07:04:05.484Z,-0.70
2018-11-28T07:05:05.440Z,-0.68
2018-11-28T07:06:05.430Z,-0.71
2018-11-28T07:07:05.431Z,-0.65
2018-11-28T07:08:05.405Z,-0.67
2018-11-28T07:09:05.394Z,-0.58
2018-11-28T07:10:05.399Z,-0.59
2018-11-28T07:11:05.390Z,-0.52
2018-11-28T07:12:05.367Z,-0.52
2018-11-28T07:13:05.376Z,-0.44
2018-11-28T07:14:05.343Z,-0.45
2018-11-28T07:15:05.338Z,-0.39
2018-11-28T07:16:05.327Z,-0.44
2018-11-28T07:17:05.348Z,-0.38
2018-11-28T07:18:05.339Z,-0.32
2018-11-28T07:19:05.300Z,-0.26
2018-11-28T07:20:05.312Z,-0.26
2018-11-28T07:21:05.274Z,-0.13
2018-11-28T07:22:05.280Z,-0.21
2018-11-28T07:23:05.245Z,-0.19
2018-11-28T07:24:05.237Z,-0.08
2018-11-28T07:25:05.234Z,-0.13
2018-11-28T07:26:05.252Z,-0.03
2018-11-28T07:27:05.201Z,-0.02
2018-11-28T07:28:05.209Z,0.08
2018-11-28T07:29:05.207Z,0.02
2018-11-28T07:30:05.168Z,0.07
2018-11-28T07:31:05.163Z,0.13
2018-11-28T07:32:05.171Z,0.08
2018-11-28T07:33:05.135Z,0.20
2018-11-28T07:34:05.144Z,0.25
2018-11-28T07:35:05.114Z,0.20
2018-11-28T07:36:05.106Z,0.22
2018-11-28T07:37:05.106Z,0.30
2018-11-28T07:38:05.112Z,0.34
2018-11-28T07:39:05.078Z,0.37
2018-11-28T07:40:05.057Z,0.41
2018-11-28T07:41:05.064Z,0.44
2018-11-28T07:42:05.039Z,0.45
2018-11-28T07:43:05.028Z,0.48
2018-11-28T07:44:05.035Z,0.56
2018-11-28T07:45:05.015Z,0.51
2018-11-28T07:46:05.016Z,0.64
2018-11-28T07:47:04.985Z,0.56
2018-11-28T07:48:04.978Z,0.53
2018-11-28T07:49:04.965Z,0.59
2018-11-28T07:50:04.959Z,0.70
2018-11-28T07:51:04.975Z,0.68
2018-11-28T07:52:04.934Z,0.74
2018-11-28T07:53:04.926Z,0.72
2018-11-28T07:54:04.911Z,0.80
2018-11-28T07:55:04.914Z,0.72
2018-11-28T07:56:04.908Z,0.75
2018-11-28T07:57:04.877Z,0.72
2018-11-28T07:58:04.887Z,0.78
2018-11-28T07:59:04.856Z,0.77
2018-11-28T08:00:04.846Z,0.74
2018-11-28T08:01:04.854Z,0.81
2018-11-28T08:02:04.877Z,0.75
2018-11-28T08:03:04.814Z,0.88
2018-11-28T08:04:04.823Z,0.82
2018-11-28T08:05:04.794Z,0.86
2018-11-28T08:06:04.793Z,0.90
2018-11-28T08:07:04.770Z,0.90
2018-11-28T08:08:04.778Z,0.84
2018-11-28T08:09:04.895Z,0.93
2018-11-28T08:10:04.795Z,0.93
2018-11-28T08:11:04.733Z,0.98
2018-11-28T08:12:04.746Z,0.95
2018-11-28T08:13:04.728Z,1.02
2018-11-28T08:14:04.695Z,0.98
2018-11-28T08:15:04.721Z,0.92
2018-11-28T08:16:04.675Z,1.00
2018-11-28T08:17:04.680Z,1.02
2018-11-28T08:18:04.661Z,1.10
2018-11-28T08:19:04.666Z,1.08
2018-11-28T08:20:04.646Z,1.06
2018-11-28T08:21:04.625Z,1.04
2018-11-28T08:22:04.611Z,1.16
2018-11-28T08:23:04.620Z,1.07
2018-11-28T08:24:04.613Z,1.00
2018-11-28T08:25:04.893Z,1.07
2018-11-28T08:26:04.589Z,1.16
2018-11-28T08:27:04.556Z,1.13
2018-11-28T08:28:04.546Z,1.18
2018-11-28T08:29:04.537Z,1.29
2018-11-28T08:30:04.542Z,1.26
2018-11-28T08:31:04.531Z,1.25
2018-11-28T08:32:04.609Z,1.26
2018-11-28T08:33:04.493Z,1.43
2018-11-28T08:34:04.507Z,1.43
2018-11-28T08:35:04.556Z,1.53
2018-11-28T08:36:04.495Z,1.46
2018-11-28T08:37:04.456Z,1.61
2018-11-28T08:38:04.439Z,1.65
2018-11-28T08:39:04.890Z,1.72
2018-11-28T08:40:04.602Z,1.71
2018-11-28T08:41:04.420Z,1.77
2018-11-28T08:42:04.400Z,1.85
2018-11-28T08:43:04.810Z,1.86
2018-11-28T08:44:04.369Z,2.02
2018-11-28T08:45:05.027Z,2.01
2018-11-28T08:46:04.377Z,2.08
2018-11-28T08:47:04.577Z,2.12
2018-11-28T08:48:07.028Z,2.18
2018-11-28T08:49:07.030Z,2.26
2018-11-28T08:50:05.033Z,2.22
2018-11-28T08:51:04.299Z,2.33
2018-11-28T08:52:04.290Z,2.29
2018-11-28T08:53:04.318Z,2.32
2018-11-28T08:54:04.267Z,2.30
2018-11-28T08:55:04.290Z,2.38
2018-11-28T08:56:04.254Z,2.37
2018-11-28T08:57:04.240Z,2.47
2018-11-28T08:58:04.219Z,2.51
2018-11-28T08:59:04.222Z,2.53
2018-11-28T09:00:04.194Z,2.56
2018-11-28T09:01:04.190Z,2.61
2018-11-28T09:02:04.208Z,2.62
2018-11-28T09:03:04.201Z,2.73
2018-11-28T09:04:04.175Z,2.79
2018-11-28T09:05:04.154Z,2.84
2018-11-28T09:06:04.139Z,2.77
2018-11-28T09:07:04.143Z,2.87
2018-11-28T09:08:04.117Z,2.76
2018-11-28T09:09:04.110Z,2.90
2018-11-28T09:10:04.100Z,2.86
2018-11-28T09:11:04.119Z,2.92
2018-11-28T09:12:04.073Z,3.02
2018-11-28T09:13:04.550Z,3.05
2018-11-28T09:14:04.685Z,3.05
2018-11-28T09:15:04.080Z,3.15
2018-11-28T09:16:04.026Z,3.10
2018-11-28T09:17:04.068Z,3.12
2018-11-28T09:18:04.015Z,3.12
2018-11-28T09:19:04.008Z,3.23
2018-11-28T09:20:03.995Z,3.26
2018-11-28T09:21:03.999Z,3.26
2018-11-28T09:22:03.965Z,3.35
2018-11-28T09:23:03.946Z,3.30
2018-11-28T09:24:03.973Z,3.42
2018-11-28T09:25:03.942Z,3.50
2018-11-28T09:26:03.924Z,3.50
2018-11-28T09:27:03.940Z,3.42
2018-11-28T09:28:03.897Z,3.46
2018-11-28T09:29:03.935Z,3.44
2018-11-28T09:30:03.887Z,3.52
2018-11-28T09:31:04.526Z,3.56
2018-11-28T09:32:03.856Z,3.53
2018-11-28T09:33:03.850Z,3.62
2018-11-28T09:34:03.829Z,3.67
2018-11-28T09:35:03.851Z,3.64
2018-11-28T09:36:03.851Z,3.62
2018-11-28T09:37:03.824Z,3.72
2018-11-28T09:38:03.795Z,3.78
2018-11-28T09:39:03.778Z,3.75
2018-11-28T09:40:03.772Z,3.72
2018-11-28T09:41:03.815Z,3.84
2018-11-28T09:42:03.740Z,3.80
2018-11-28T09:43:03.732Z,3.88
2018-11-28T09:44:03.745Z,3.80
2018-11-28T09:45:03.710Z,3.93
2018-11-28T09:46:03.707Z,3.92
2018-11-28T09:47:03.688Z,3.96
2018-11-28T09:48:03.674Z,3.84
2018-11-28T09:49:03.704Z,4.04
2018-11-28T09:50:03.657Z,3.95
2018-11-28T09:51:03.730Z,4.02
2018-11-28T09:52:03.631Z,4.06
2018-11-28T09:53:03.625Z,4.02
2018-11-28T09:54:03.616Z,4.06
2018-11-28T09:55:03.601Z,4.18
2018-11-28T09:56:03.613Z,4.14
2018-11-28T09:57:03.616Z,4.10
2018-11-28T09:58:03.575Z,4.18
2018-11-28T09:59:03.555Z,4.25
2018-11-28T10:00:03.546Z,4.29
2018-11-28T10:01:03.535Z,4.32
2018-11-28T10:02:03.580Z,4.35
2018-11-28T10:03:03.515Z,4.39
2018-11-28T10:04:03.502Z,4.36
2018-11-28T10:05:03.588Z,4.39
2018-11-28T10:06:03.613Z,4.47
2018-11-28T10:07:03.473Z,4.56
2018-11-28T10:08:03.479Z,4.53
2018-11-28T10:09:03.444Z,4.53
2018-11-28T10:10:03.437Z,4.61
2018-11-28T10:11:03.438Z,4.59
2018-11-28T10:12:03.410Z,4.62
2018-11-28T10:13:03.429Z,4.59
2018-11-28T10:14:03.408Z,4.69
2018-11-28T10:15:03.377Z,4.62
2018-11-28T10:16:03.375Z,4.68
2018-11-28T10:17:03.364Z,4.75
2018-11-28T10:18:03.350Z,4.74
2018-11-28T10:19:03.353Z,4.87
2018-11-28T10:20:03.361Z,4.84
2018-11-28T10:21:03.314Z,4.88
2018-11-28T10:22:03.298Z,4.88
2018-11-28T10:23:03.338Z,4.88
2018-11-28T10:24:03.279Z,4.88
2018-11-28T10:25:03.266Z,4.94
2018-11-28T10:26:03.255Z,4.94
2018-11-28T10:27:03.311Z,4.93
2018-11-28T10:28:03.250Z,4.94
2018-11-28T10:29:03.252Z,5.02
2018-11-28T10:30:03.215Z,5.02
2018-11-28T10:31:03.203Z,4.99
2018-11-28T10:32:03.190Z,4.97
2018-11-28T10:33:03.259Z,4.96
2018-11-28T10:34:03.187Z,5.09
2018-11-28T10:35:03.208Z,5.05
2018-11-28T10:36:03.246Z,5.02
2018-11-28T10:37:03.181Z,5.12
2018-11-28T10:38:03.123Z,5.17
2018-11-28T10:39:03.114Z,5.15
2018-11-28T10:40:03.100Z,5.14
2018-11-28T10:41:03.218Z,5.20
2018-11-28T10:42:03.085Z,5.26
2018-11-28T10:43:03.067Z,5.22
2018-11-28T10:44:03.073Z,5.27
2018-11-28T10:45:03.055Z,5.30
2018-11-28T10:46:03.168Z,5.29
2018-11-28T10:47:03.041Z,5.29
2018-11-28T10:48:03.012Z,5.38
2018-11-28T10:49:03.191Z,5.41
2018-11-28T10:50:02.998Z,5.49
2018-11-28T10:51:02.994Z,5.42
2018-11-28T10:52:02.979Z,5.49
2018-11-28T10:53:02.960Z,5.52
2018-11-28T10:54:02.948Z,5.59
2018-11-28T10:55:02.952Z,5.52
2018-11-28T10:56:02.940Z,5.67
2018-11-28T10:57:02.912Z,5.66
2018-11-28T10:58:02.931Z,5.59
2018-11-28T10:59:02.903Z,5.59
2018-11-28T11:00:02.983Z,5.77
2018-11-28T11:01:02.896Z,5.78
2018-11-28T11:02:02.888Z,5.77
2018-11-28T11:03:02.853Z,5.77
2018-11-28T11:04:02.843Z,5.73
2018-11-28T11:05:02.834Z,5.80
2018-11-28T11:06:02.843Z,5.78
2018-11-28T11:07:02.807Z,5.83
2018-11-28T11:08:02.814Z,5.98
2018-11-28T11:09:02.787Z,5.96
2018-11-28T11:10:02.779Z,5.93
2018-11-28T11:11:02.764Z,5.92
2018-11-28T11:12:02.795Z,5.92
2018-11-28T11:13:02.762Z,6.02
2018-11-28T11:14:02.733Z,6.03
2018-11-28T11:15:02.719Z,5.99
2018-11-28T11:16:02.731Z,6.03
2018-11-28T11:17:02.701Z,6.03
2018-11-28T11:18:02.725Z,5.96
2018-11-28T11:19:02.701Z,6.11
2018-11-28T11:20:02.724Z,6.13
2018-11-28T11:21:02.658Z,6.19
2018-11-28T11:22:02.758Z,6.17
2018-11-28T11:23:02.629Z,6.20
2018-11-28T11:24:02.643Z,6.27
2018-11-28T11:25:02.654Z,6.19
2018-11-28T11:26:02.598Z,6.27
2018-11-28T11:27:02.591Z,6.25
2018-11-28T11:28:02.623Z,6.21
2018-11-28T11:29:02.589Z,6.27
2018-11-28T11:30:02.555Z,6.36
2018-11-28T11:31:02.566Z,6.36
2018-11-28T11:32:02.558Z,6.32
2018-11-28T11:33:02.536Z,6.39
2018-11-28T11:34:02.511Z,6.39
2018-11-28T11:35:02.523Z,6.43
2018-11-28T11:36:02.498Z,6.50
2018-11-28T11:37:02.485Z,6.48
2018-11-28T11:38:02.496Z,6.55
2018-11-28T11:39:02.495Z,6.48
2018-11-28T11:40:02.450Z,6.50
2018-11-28T11:41:02.438Z,6.57
2018-11-28T11:42:02.419Z,6.60
2018-11-28T11:43:02.414Z,6.64
2018-11-28T11:44:02.425Z,6.63
2018-11-28T11:45:02.402Z,6.68
2018-11-28T11:46:02.386Z,6.72
2018-11-28T11:47:02.381Z,6.72
2018-11-28T11:48:02.355Z,6.69
2018-11-28T11:49:02.344Z,6.73
2018-11-28T11:50:02.425Z,6.72
2018-11-28T11:51:02.336Z,6.69
2018-11-28T11:52:02.332Z,6.73
2018-11-28T11:53:02.305Z,6.75
2018-11-28T11:54:02.363Z,6.69
2018-11-28T11:55:02.287Z,6.86
2018-11-28T11:56:02.311Z,6.83
2018-11-28T11:57:02.284Z,6.73
2018-11-28T11:58:02.263Z,6.89
2018-11-28T11:59:02.237Z,6.89
2018-11-28T12:00:02.327Z,6.87
2018-11-28T12:01:02.351Z,6.86
2018-11-28T12:02:02.239Z,6.96
2018-11-28T12:03:02.204Z,7.00
2018-11-28T12:04:02.200Z,6.99
2018-11-28T12:05:02.176Z,6.99
2018-11-28T12:06:02.180Z,6.96
2018-11-28T12:07:02.186Z,7.08
2018-11-28T12:08:02.141Z,7.00
2018-11-28T12:09:02.130Z,7.07
2018-11-28T12:10:02.110Z,7.05
2018-11-28T12:11:02.123Z,7.11
2018-11-28T12:12:02.138Z,7.14
2018-11-28T12:13:02.087Z,7.11
2018-11-28T12:14:02.083Z,7.14
2018-11-28T12:15:02.064Z,7.09
2018-11-28T12:16:02.125Z,7.14
2018-11-28T12:17:02.044Z,7.15
2018-11-28T12:18:02.062Z,7.19
2018-11-28T12:19:02.017Z,7.19
2018-11-28T12:20:02.013Z,7.19
2018-11-28T12:21:02.052Z,7.15
2018-11-28T12:22:01.983Z,7.18
2018-11-28T12:23:01.979Z,7.23
2018-11-28T12:24:02.007Z,7.14
2018-11-28T12:25:01.960Z,7.29
2018-11-28T12:26:01.960Z,7.26
2018-11-28T12:27:01.946Z,7.26
2018-11-28T12:28:01.915Z,7.27
2018-11-28T12:29:01.922Z,7.29
2018-11-28T12:30:01.901Z,7.23
2018-11-28T12:31:01.881Z,7.24
2018-11-28T12:32:01.893Z,7.39
2018-11-28T12:33:01.880Z,7.37
2018-11-28T12:34:01.852Z,7.36
2018-11-28T12:35:01.845Z,7.41
2018-11-28T12:36:01.829Z,7.33
2018-11-28T12:37:01.846Z,7.50
2018-11-28T12:38:01.882Z,7.47
2018-11-28T12:39:01.823Z,7.48
2018-11-28T12:40:01.794Z,7.54
2018-11-28T12:41:01.774Z,7.47
2018-11-28T12:42:01.765Z,7.42
2018-11-28T12:43:01.754Z,7.45
2018-11-28T12:44:01.748Z,7.45
2018-11-28T12:45:01.741Z,7.50
2018-11-28T12:46:01.773Z,7.50
2018-11-28T12:47:01.713Z,7.51
2018-11-28T12:48:01.703Z,7.54
2018-11-28T12:49:01.704Z,7.57
2018-11-28T12:50:01.700Z,7.52
2018-11-28T12:51:01.668Z,7.60
2018-11-28T12:52:01.667Z,7.58
2018-11-28T12:53:01.649Z,7.62
2018-11-28T12:54:01.633Z,7.63
2018-11-28T12:55:01.657Z,7.63
2018-11-28T12:56:01.641Z,7.60
2018-11-28T12:57:01.609Z,7.62
2018-11-28T12:58:01.600Z,7.55
2018-11-28T12:59:01.585Z,7.60
2018-11-28T13:00:01.566Z,7.66
2018-11-28T13:01:01.572Z,7.57
2018-11-28T13:02:01.545Z,7.57
2018-11-28T13:03:01.538Z,7.66